sensor_id;sensor_type;location;lat;lon;timestamp;temperature;humidity
435;DHT22;204;48.942;9.256;2023-06-24T00:00:28;16.60;1.00
435;DHT22;204;48.942;9.256;2023-06-24T00:02:53;16.60;1.00
435;DHT22;204;48.942;9.256;2023-06-24T00:05:19;16.50;1.00
435;DHT22;204;48.942;9.256;2023-06-24T00:07:45;16.50;1.00
435;DHT22;204;48.942;9.256;2023-06-24T00:10:14;16.50;1.00
435;DHT22;204;48.942;9.256;2023-06-24T00:12:40;16.40;1.00
435;DHT22;204;48.942;9.256;2023-06-24T00:15:07;16.30;1.00
435;DHT22;204;48.942;9.256;2023-06-24T00:17:35;16.30;1.00
435;DHT22;204;48.942;9.256;2023-06-24T00:20:01;16.30;1.00
435;DHT22;204;48.942;9.256;2023-06-24T00:22:26;16.30;1.00
435;DHT22;204;48.942;9.256;2023-06-24T00:24:52;16.30;1.00
435;DHT22;204;48.942;9.256;2023-06-24T00:27:17;16.30;1.00
435;DHT22;204;48.942;9.256;2023-06-24T00:29:43;16.20;1.00
435;DHT22;204;48.942;9.256;2023-06-24T00:32:08;16.20;1.00
435;DHT22;204;48.942;9.256;2023-06-24T00:34:34;16.20;1.00
435;DHT22;204;48.942;9.256;2023-06-24T00:36:59;16.10;1.00
435;DHT22;204;48.942;9.256;2023-06-24T00:39:28;16.10;1.00
435;DHT22;204;48.942;9.256;2023-06-24T00:41:53;16.10;1.00
435;DHT22;204;48.942;9.256;2023-06-24T00:44:19;16.10;1.00
435;DHT22;204;48.942;9.256;2023-06-24T00:46:45;16.10;1.00
435;DHT22;204;48.942;9.256;2023-06-24T00:49:11;16.00;1.00
435;DHT22;204;48.942;9.256;2023-06-24T00:51:40;16.00;1.00
435;DHT22;204;48.942;9.256;2023-06-24T00:54:12;15.90;1.00
435;DHT22;204;48.942;9.256;2023-06-24T00:56:38;15.90;1.00
435;DHT22;204;48.942;9.256;2023-06-24T00:59:04;15.80;1.00
435;DHT22;204;48.942;9.256;2023-06-24T01:01:34;15.80;1.00
435;DHT22;204;48.942;9.256;2023-06-24T01:04:03;15.80;1.00
435;DHT22;204;48.942;9.256;2023-06-24T01:06:30;15.80;1.00
435;DHT22;204;48.942;9.256;2023-06-24T01:08:59;15.70;1.00
435;DHT22;204;48.942;9.256;2023-06-24T01:11:26;15.80;1.00
435;DHT22;204;48.942;9.256;2023-06-24T01:13:52;15.70;1.00
435;DHT22;204;48.942;9.256;2023-06-24T01:18:57;15.70;1.00
435;DHT22;204;48.942;9.256;2023-06-24T01:21:50;15.60;1.00
435;DHT22;204;48.942;9.256;2023-06-24T01:32:14;15.50;1.00
435;DHT22;204;48.942;9.256;2023-06-24T01:34:46;15.40;1.00
435;DHT22;204;48.942;9.256;2023-06-24T01:40:01;15.30;1.00
435;DHT22;204;48.942;9.256;2023-06-24T01:42:35;15.20;1.00
435;DHT22;204;48.942;9.256;2023-06-24T01:45:02;15.20;1.00
435;DHT22;204;48.942;9.256;2023-06-24T01:47:29;15.20;1.00
435;DHT22;204;48.942;9.256;2023-06-24T01:49:57;15.20;1.00
435;DHT22;204;48.942;9.256;2023-06-24T01:52:23;15.10;1.00
435;DHT22;204;48.942;9.256;2023-06-24T01:54:54;15.10;1.00
435;DHT22;204;48.942;9.256;2023-06-24T01:57:21;15.10;1.00
435;DHT22;204;48.942;9.256;2023-06-24T01:59:48;15.10;1.00
435;DHT22;204;48.942;9.256;2023-06-24T02:02:15;15.00;1.00
435;DHT22;204;48.942;9.256;2023-06-24T02:04:41;15.00;1.00
435;DHT22;204;48.942;9.256;2023-06-24T02:07:08;14.90;1.00
435;DHT22;204;48.942;9.256;2023-06-24T02:09:34;14.90;1.00
435;DHT22;204;48.942;9.256;2023-06-24T02:12:02;14.90;1.00
435;DHT22;204;48.942;9.256;2023-06-24T02:14:29;14.90;1.00
435;DHT22;204;48.942;9.256;2023-06-24T02:16:57;14.90;1.00
435;DHT22;204;48.942;9.256;2023-06-24T02:19:27;14.90;1.00
435;DHT22;204;48.942;9.256;2023-06-24T02:21:55;14.90;1.00
435;DHT22;204;48.942;9.256;2023-06-24T02:24:21;14.90;1.00
435;DHT22;204;48.942;9.256;2023-06-24T02:26:47;14.80;1.00
435;DHT22;204;48.942;9.256;2023-06-24T02:29:13;14.80;1.00
435;DHT22;204;48.942;9.256;2023-06-24T02:31:39;14.80;1.00
435;DHT22;204;48.942;9.256;2023-06-24T02:34:05;14.80;1.00
435;DHT22;204;48.942;9.256;2023-06-24T02:36:31;14.70;1.00
435;DHT22;204;48.942;9.256;2023-06-24T02:38:56;14.80;1.00
435;DHT22;204;48.942;9.256;2023-06-24T02:41:22;14.70;1.00
435;DHT22;204;48.942;9.256;2023-06-24T02:43:48;14.70;1.00
435;DHT22;204;48.942;9.256;2023-06-24T02:46:15;14.70;1.00
435;DHT22;204;48.942;9.256;2023-06-24T02:48:41;14.60;1.00
435;DHT22;204;48.942;9.256;2023-06-24T02:51:08;14.60;1.00
435;DHT22;204;48.942;9.256;2023-06-24T02:53:38;14.60;1.00
435;DHT22;204;48.942;9.256;2023-06-24T02:56:05;14.50;1.00
435;DHT22;204;48.942;9.256;2023-06-24T02:58:32;14.50;1.00
435;DHT22;204;48.942;9.256;2023-06-24T03:01:01;14.40;1.00
435;DHT22;204;48.942;9.256;2023-06-24T03:03:28;14.40;1.00
435;DHT22;204;48.942;9.256;2023-06-24T03:05:55;14.40;1.00
435;DHT22;204;48.942;9.256;2023-06-24T03:08:24;14.40;1.00
435;DHT22;204;48.942;9.256;2023-06-24T03:10:54;14.40;1.00
435;DHT22;204;48.942;9.256;2023-06-24T03:13:20;14.30;1.00
435;DHT22;204;48.942;9.256;2023-06-24T03:15:46;14.30;1.00
435;DHT22;204;48.942;9.256;2023-06-24T03:18:11;14.40;1.00
435;DHT22;204;48.942;9.256;2023-06-24T03:20:37;14.40;1.00
435;DHT22;204;48.942;9.256;2023-06-24T03:23:06;14.40;1.00
435;DHT22;204;48.942;9.256;2023-06-24T03:25:32;14.40;1.00
435;DHT22;204;48.942;9.256;2023-06-24T03:27:57;14.40;1.00
435;DHT22;204;48.942;9.256;2023-06-24T03:30:24;14.40;1.00
435;DHT22;204;48.942;9.256;2023-06-24T03:32:49;14.40;1.00
435;DHT22;204;48.942;9.256;2023-06-24T03:35:15;14.40;1.00
435;DHT22;204;48.942;9.256;2023-06-24T03:37:40;14.50;1.00
435;DHT22;204;48.942;9.256;2023-06-24T03:40:07;14.50;1.00
435;DHT22;204;48.942;9.256;2023-06-24T03:42:33;14.50;1.00
435;DHT22;204;48.942;9.256;2023-06-24T03:44:59;14.60;1.00
435;DHT22;204;48.942;9.256;2023-06-24T03:47:24;14.60;1.00
435;DHT22;204;48.942;9.256;2023-06-24T03:49:50;14.70;1.00
435;DHT22;204;48.942;9.256;2023-06-24T03:52:17;14.80;1.00
435;DHT22;204;48.942;9.256;2023-06-24T03:54:42;14.80;1.00
435;DHT22;204;48.942;9.256;2023-06-24T03:57:08;14.80;1.00
435;DHT22;204;48.942;9.256;2023-06-24T03:59:34;15.00;1.00
435;DHT22;204;48.942;9.256;2023-06-24T04:01:59;15.20;1.00
435;DHT22;204;48.942;9.256;2023-06-24T04:04:26;15.60;1.00
435;DHT22;204;48.942;9.256;2023-06-24T04:06:51;16.10;1.00
435;DHT22;204;48.942;9.256;2023-06-24T04:09:17;16.60;1.00
435;DHT22;204;48.942;9.256;2023-06-24T04:11:42;17.00;1.00
435;DHT22;204;48.942;9.256;2023-06-24T04:14:08;17.50;1.00
435;DHT22;204;48.942;9.256;2023-06-24T04:16:35;17.90;1.00
435;DHT22;204;48.942;9.256;2023-06-24T04:19:01;18.30;1.00
435;DHT22;204;48.942;9.256;2023-06-24T04:21:27;18.60;1.00
435;DHT22;204;48.942;9.256;2023-06-24T04:23:52;18.80;1.00
435;DHT22;204;48.942;9.256;2023-06-24T04:26:18;19.20;1.00
435;DHT22;204;48.942;9.256;2023-06-24T04:28:44;19.30;1.00
435;DHT22;204;48.942;9.256;2023-06-24T04:31:09;19.40;1.00
435;DHT22;204;48.942;9.256;2023-06-24T04:33:35;19.60;1.00
435;DHT22;204;48.942;9.256;2023-06-24T04:36:01;19.70;1.00
435;DHT22;204;48.942;9.256;2023-06-24T04:38:26;19.80;1.00
435;DHT22;204;48.942;9.256;2023-06-24T04:40:52;19.90;1.00
435;DHT22;204;48.942;9.256;2023-06-24T04:43:18;20.00;1.00
435;DHT22;204;48.942;9.256;2023-06-24T04:45:43;20.20;1.00
435;DHT22;204;48.942;9.256;2023-06-24T04:48:09;20.30;1.00
435;DHT22;204;48.942;9.256;2023-06-24T04:50:35;20.40;1.00
435;DHT22;204;48.942;9.256;2023-06-24T04:53:00;20.60;1.00
435;DHT22;204;48.942;9.256;2023-06-24T04:55:27;20.60;1.00
435;DHT22;204;48.942;9.256;2023-06-24T04:57:55;20.50;1.00
435;DHT22;204;48.942;9.256;2023-06-24T05:00:21;20.50;1.00
435;DHT22;204;48.942;9.256;2023-06-24T05:02:48;20.30;1.00
435;DHT22;204;48.942;9.256;2023-06-24T05:05:14;20.30;1.00
435;DHT22;204;48.942;9.256;2023-06-24T05:07:39;20.20;1.00
435;DHT22;204;48.942;9.256;2023-06-24T05:10:05;20.10;1.00
435;DHT22;204;48.942;9.256;2023-06-24T05:12:31;20.00;1.00
435;DHT22;204;48.942;9.256;2023-06-24T05:14:56;20.00;1.00
435;DHT22;204;48.942;9.256;2023-06-24T05:17:22;19.70;1.00
435;DHT22;204;48.942;9.256;2023-06-24T05:19:48;19.30;1.00
435;DHT22;204;48.942;9.256;2023-06-24T05:22:13;19.00;1.00
435;DHT22;204;48.942;9.256;2023-06-24T05:24:39;19.00;1.00
435;DHT22;204;48.942;9.256;2023-06-24T05:27:06;19.20;1.00
435;DHT22;204;48.942;9.256;2023-06-24T05:29:33;19.40;1.00
435;DHT22;204;48.942;9.256;2023-06-24T05:31:59;19.70;1.00
435;DHT22;204;48.942;9.256;2023-06-24T05:34:27;20.00;1.00
435;DHT22;204;48.942;9.256;2023-06-24T05:36:52;19.80;1.00
435;DHT22;204;48.942;9.256;2023-06-24T05:39:20;20.00;1.00
435;DHT22;204;48.942;9.256;2023-06-24T05:41:46;20.30;1.00
435;DHT22;204;48.942;9.256;2023-06-24T05:44:13;20.60;1.00
435;DHT22;204;48.942;9.256;2023-06-24T05:46:39;20.80;1.00
435;DHT22;204;48.942;9.256;2023-06-24T05:49:04;21.00;99.90
435;DHT22;204;48.942;9.256;2023-06-24T05:51:30;21.30;99.90
435;DHT22;204;48.942;9.256;2023-06-24T05:53:56;21.50;99.90
435;DHT22;204;48.942;9.256;2023-06-24T05:56:22;21.70;99.90
435;DHT22;204;48.942;9.256;2023-06-24T05:58:48;21.80;99.90
435;DHT22;204;48.942;9.256;2023-06-24T06:01:14;22.10;99.90
435;DHT22;204;48.942;9.256;2023-06-24T06:03:40;22.50;99.90
435;DHT22;204;48.942;9.256;2023-06-24T06:06:05;22.80;99.90
435;DHT22;204;48.942;9.256;2023-06-24T06:08:32;23.10;99.90
435;DHT22;204;48.942;9.256;2023-06-24T06:10:58;23.30;99.90
435;DHT22;204;48.942;9.256;2023-06-24T06:13:23;23.50;99.90
435;DHT22;204;48.942;9.256;2023-06-24T06:15:49;23.70;99.90
435;DHT22;204;48.942;9.256;2023-06-24T06:18:14;24.00;99.90
435;DHT22;204;48.942;9.256;2023-06-24T06:20:40;24.10;99.90
435;DHT22;204;48.942;9.256;2023-06-24T06:23:06;24.30;99.90
435;DHT22;204;48.942;9.256;2023-06-24T06:25:32;24.40;99.90
435;DHT22;204;48.942;9.256;2023-06-24T06:27:58;24.60;99.90
435;DHT22;204;48.942;9.256;2023-06-24T06:30:23;24.80;99.90
435;DHT22;204;48.942;9.256;2023-06-24T06:32:49;24.90;99.90
435;DHT22;204;48.942;9.256;2023-06-24T06:35:14;25.00;99.90
435;DHT22;204;48.942;9.256;2023-06-24T06:37:40;24.90;99.90
435;DHT22;204;48.942;9.256;2023-06-24T06:40:06;25.00;99.90
435;DHT22;204;48.942;9.256;2023-06-24T06:42:32;25.00;99.90
435;DHT22;204;48.942;9.256;2023-06-24T06:44:57;25.10;99.90
435;DHT22;204;48.942;9.256;2023-06-24T06:47:23;25.20;99.90
435;DHT22;204;48.942;9.256;2023-06-24T06:49:49;25.30;99.90
435;DHT22;204;48.942;9.256;2023-06-24T06:52:14;25.40;99.90
435;DHT22;204;48.942;9.256;2023-06-24T06:54:40;25.40;99.90
435;DHT22;204;48.942;9.256;2023-06-24T06:57:05;25.50;99.90
435;DHT22;204;48.942;9.256;2023-06-24T06:59:32;25.60;99.90
435;DHT22;204;48.942;9.256;2023-06-24T07:01:58;25.70;99.90
435;DHT22;204;48.942;9.256;2023-06-24T07:04:24;25.80;99.90
435;DHT22;204;48.942;9.256;2023-06-24T07:06:49;25.90;99.90
435;DHT22;204;48.942;9.256;2023-06-24T07:09:15;25.90;99.90
435;DHT22;204;48.942;9.256;2023-06-24T07:11:42;25.90;99.90
435;DHT22;204;48.942;9.256;2023-06-24T07:14:08;25.90;99.90
435;DHT22;204;48.942;9.256;2023-06-24T07:16:33;25.90;99.90
435;DHT22;204;48.942;9.256;2023-06-24T07:18:59;26.00;99.90
435;DHT22;204;48.942;9.256;2023-06-24T07:21:24;26.00;99.90
435;DHT22;204;48.942;9.256;2023-06-24T07:23:50;26.10;99.90
435;DHT22;204;48.942;9.256;2023-06-24T07:26:15;26.20;99.90
435;DHT22;204;48.942;9.256;2023-06-24T07:28:41;26.20;99.90
435;DHT22;204;48.942;9.256;2023-06-24T07:31:07;26.30;99.90
435;DHT22;204;48.942;9.256;2023-06-24T07:33:32;26.30;99.90
435;DHT22;204;48.942;9.256;2023-06-24T07:35:58;26.40;99.90
435;DHT22;204;48.942;9.256;2023-06-24T07:38:23;26.50;99.90
435;DHT22;204;48.942;9.256;2023-06-24T07:40:49;26.40;99.90
435;DHT22;204;48.942;9.256;2023-06-24T07:43:15;26.30;99.90
435;DHT22;204;48.942;9.256;2023-06-24T07:45:40;26.30;99.90
435;DHT22;204;48.942;9.256;2023-06-24T07:48:06;26.40;99.90
435;DHT22;204;48.942;9.256;2023-06-24T07:50:33;26.50;99.90
435;DHT22;204;48.942;9.256;2023-06-24T07:53:00;26.60;99.90
435;DHT22;204;48.942;9.256;2023-06-24T07:55:25;26.50;99.90
435;DHT22;204;48.942;9.256;2023-06-24T07:57:51;26.50;99.90
435;DHT22;204;48.942;9.256;2023-06-24T08:00:16;26.60;99.90
435;DHT22;204;48.942;9.256;2023-06-24T08:02:42;26.70;99.90
435;DHT22;204;48.942;9.256;2023-06-24T08:05:08;26.70;99.90
435;DHT22;204;48.942;9.256;2023-06-24T08:07:37;26.80;99.90
435;DHT22;204;48.942;9.256;2023-06-24T08:10:04;26.70;99.90
435;DHT22;204;48.942;9.256;2023-06-24T08:12:31;26.80;99.90
435;DHT22;204;48.942;9.256;2023-06-24T08:14:57;26.90;99.90
435;DHT22;204;48.942;9.256;2023-06-24T08:17:22;27.00;99.90
435;DHT22;204;48.942;9.256;2023-06-24T08:19:48;27.10;99.90
435;DHT22;204;48.942;9.256;2023-06-24T08:22:14;27.10;99.90
435;DHT22;204;48.942;9.256;2023-06-24T08:24:40;27.30;99.90
435;DHT22;204;48.942;9.256;2023-06-24T08:27:05;27.30;99.90
435;DHT22;204;48.942;9.256;2023-06-24T08:29:31;27.30;99.90
435;DHT22;204;48.942;9.256;2023-06-24T08:31:56;27.30;99.90
435;DHT22;204;48.942;9.256;2023-06-24T08:34:22;27.30;99.90
435;DHT22;204;48.942;9.256;2023-06-24T08:36:48;27.20;99.90
435;DHT22;204;48.942;9.256;2023-06-24T08:39:13;27.30;99.90
435;DHT22;204;48.942;9.256;2023-06-24T08:41:39;27.40;99.90
435;DHT22;204;48.942;9.256;2023-06-24T08:44:04;27.50;99.90
435;DHT22;204;48.942;9.256;2023-06-24T08:46:31;27.60;99.90
435;DHT22;204;48.942;9.256;2023-06-24T08:51:51;27.60;99.90
435;DHT22;204;48.942;9.256;2023-06-24T08:54:19;27.70;99.90
435;DHT22;204;48.942;9.256;2023-06-24T08:56:45;27.60;99.90
435;DHT22;204;48.942;9.256;2023-06-24T08:59:11;27.70;99.90
435;DHT22;204;48.942;9.256;2023-06-24T09:01:37;27.60;99.90
435;DHT22;204;48.942;9.256;2023-06-24T09:04:02;27.40;99.90
435;DHT22;204;48.942;9.256;2023-06-24T09:06:30;27.30;99.90
435;DHT22;204;48.942;9.256;2023-06-24T09:08:56;27.10;99.90
435;DHT22;204;48.942;9.256;2023-06-24T09:11:26;27.00;99.90
435;DHT22;204;48.942;9.256;2023-06-24T09:13:59;27.10;99.90
435;DHT22;204;48.942;9.256;2023-06-24T09:16:26;27.20;99.90
435;DHT22;204;48.942;9.256;2023-06-24T09:18:52;27.40;99.90
435;DHT22;204;48.942;9.256;2023-06-24T09:21:25;27.50;99.90
435;DHT22;204;48.942;9.256;2023-06-24T09:23:55;27.50;99.90
435;DHT22;204;48.942;9.256;2023-06-24T09:26:25;27.40;99.90
435;DHT22;204;48.942;9.256;2023-06-24T09:28:51;27.40;99.90
435;DHT22;204;48.942;9.256;2023-06-24T09:31:17;27.20;99.90
435;DHT22;204;48.942;9.256;2023-06-24T09:33:43;26.90;99.90
435;DHT22;204;48.942;9.256;2023-06-24T09:36:13;27.00;99.90
435;DHT22;204;48.942;9.256;2023-06-24T09:38:44;27.00;99.90
435;DHT22;204;48.942;9.256;2023-06-24T09:41:10;27.20;99.90
435;DHT22;204;48.942;9.256;2023-06-24T09:43:36;27.50;99.90
435;DHT22;204;48.942;9.256;2023-06-24T09:46:03;27.50;99.90
435;DHT22;204;48.942;9.256;2023-06-24T09:48:30;27.30;99.90
435;DHT22;204;48.942;9.256;2023-06-24T09:51:04;27.40;99.90
435;DHT22;204;48.942;9.256;2023-06-24T09:53:31;27.20;99.90
435;DHT22;204;48.942;9.256;2023-06-24T09:55:59;27.30;99.90
435;DHT22;204;48.942;9.256;2023-06-24T09:58:27;27.50;99.90
435;DHT22;204;48.942;9.256;2023-06-24T10:00:54;27.40;99.90
435;DHT22;204;48.942;9.256;2023-06-24T10:03:21;27.30;99.90
435;DHT22;204;48.942;9.256;2023-06-24T10:05:47;27.30;99.90
435;DHT22;204;48.942;9.256;2023-06-24T10:08:14;27.40;99.90
435;DHT22;204;48.942;9.256;2023-06-24T10:10:40;27.50;99.90
435;DHT22;204;48.942;9.256;2023-06-24T10:13:05;27.60;99.90
435;DHT22;204;48.942;9.256;2023-06-24T10:15:32;27.60;99.90
435;DHT22;204;48.942;9.256;2023-06-24T10:18:01;27.60;99.90
435;DHT22;204;48.942;9.256;2023-06-24T10:20:28;27.50;99.90
435;DHT22;204;48.942;9.256;2023-06-24T10:22:53;27.40;99.90
435;DHT22;204;48.942;9.256;2023-06-24T10:25:20;27.40;99.90
435;DHT22;204;48.942;9.256;2023-06-24T10:27:53;27.00;99.90
435;DHT22;204;48.942;9.256;2023-06-24T10:30:19;27.00;99.90
435;DHT22;204;48.942;9.256;2023-06-24T10:32:51;27.00;99.90
435;DHT22;204;48.942;9.256;2023-06-24T10:35:27;27.30;99.90
435;DHT22;204;48.942;9.256;2023-06-24T10:38:01;27.70;99.90
435;DHT22;204;48.942;9.256;2023-06-24T10:45:49;27.90;99.90
435;DHT22;204;48.942;9.256;2023-06-24T10:48:16;27.90;99.90
435;DHT22;204;48.942;9.256;2023-06-24T10:50:45;27.90;99.90
435;DHT22;204;48.942;9.256;2023-06-24T10:53:11;28.00;99.90
435;DHT22;204;48.942;9.256;2023-06-24T10:55:37;28.10;99.90
435;DHT22;204;48.942;9.256;2023-06-24T10:58:07;28.30;99.90
435;DHT22;204;48.942;9.256;2023-06-24T11:00:33;28.20;99.90
435;DHT22;204;48.942;9.256;2023-06-24T11:03:11;28.00;99.90
435;DHT22;204;48.942;9.256;2023-06-24T11:05:39;27.90;99.90
435;DHT22;204;48.942;9.256;2023-06-24T11:08:06;28.00;99.90
435;DHT22;204;48.942;9.256;2023-06-24T11:10:31;28.10;99.90
435;DHT22;204;48.942;9.256;2023-06-24T11:12:57;28.30;99.90
435;DHT22;204;48.942;9.256;2023-06-24T11:15:24;28.40;99.90
435;DHT22;204;48.942;9.256;2023-06-24T11:17:51;28.50;99.90
435;DHT22;204;48.942;9.256;2023-06-24T11:20:17;28.70;99.90
435;DHT22;204;48.942;9.256;2023-06-24T11:22:43;29.00;99.90
435;DHT22;204;48.942;9.256;2023-06-24T11:25:22;29.00;99.90
435;DHT22;204;48.942;9.256;2023-06-24T11:27:50;28.90;99.90
435;DHT22;204;48.942;9.256;2023-06-24T11:30:17;29.00;99.90
435;DHT22;204;48.942;9.256;2023-06-24T11:32:44;29.10;99.90
435;DHT22;204;48.942;9.256;2023-06-24T11:35:11;29.10;99.90
435;DHT22;204;48.942;9.256;2023-06-24T11:37:45;29.30;99.90
435;DHT22;204;48.942;9.256;2023-06-24T11:40:13;29.30;99.90
435;DHT22;204;48.942;9.256;2023-06-24T11:42:40;29.40;99.90
435;DHT22;204;48.942;9.256;2023-06-24T11:45:14;29.40;99.90
435;DHT22;204;48.942;9.256;2023-06-24T11:47:42;29.60;99.90
435;DHT22;204;48.942;9.256;2023-06-24T11:50:08;29.70;99.90
435;DHT22;204;48.942;9.256;2023-06-24T11:52:46;29.90;99.90
435;DHT22;204;48.942;9.256;2023-06-24T11:57:58;29.80;99.90
435;DHT22;204;48.942;9.256;2023-06-24T12:02:53;29.60;99.90
435;DHT22;204;48.942;9.256;2023-06-24T12:05:28;29.60;99.90
435;DHT22;204;48.942;9.256;2023-06-24T12:07:57;29.80;99.90
435;DHT22;204;48.942;9.256;2023-06-24T12:10:23;30.00;99.90
435;DHT22;204;48.942;9.256;2023-06-24T12:12:49;30.00;99.90
435;DHT22;204;48.942;9.256;2023-06-24T12:15:16;30.10;99.90
435;DHT22;204;48.942;9.256;2023-06-24T12:17:42;30.20;99.90
435;DHT22;204;48.942;9.256;2023-06-24T12:20:08;30.20;99.90
435;DHT22;204;48.942;9.256;2023-06-24T12:22:34;30.30;99.90
435;DHT22;204;48.942;9.256;2023-06-24T12:25:00;30.30;99.90
435;DHT22;204;48.942;9.256;2023-06-24T12:27:26;30.30;99.90
435;DHT22;204;48.942;9.256;2023-06-24T12:29:51;29.90;99.90
435;DHT22;204;48.942;9.256;2023-06-24T12:32:17;29.60;99.90
435;DHT22;204;48.942;9.256;2023-06-24T12:34:42;29.50;99.90
435;DHT22;204;48.942;9.256;2023-06-24T12:37:08;29.40;99.90
435;DHT22;204;48.942;9.256;2023-06-24T12:39:33;29.30;99.90
435;DHT22;204;48.942;9.256;2023-06-24T12:41:59;29.40;99.90
435;DHT22;204;48.942;9.256;2023-06-24T12:44:25;29.40;99.90
435;DHT22;204;48.942;9.256;2023-06-24T12:46:50;29.30;99.90
435;DHT22;204;48.942;9.256;2023-06-24T12:49:16;29.30;99.90
435;DHT22;204;48.942;9.256;2023-06-24T12:51:41;29.10;99.90
435;DHT22;204;48.942;9.256;2023-06-24T12:54:07;29.20;99.90
435;DHT22;204;48.942;9.256;2023-06-24T12:56:33;29.00;99.90
435;DHT22;204;48.942;9.256;2023-06-24T12:58:58;29.00;99.90
435;DHT22;204;48.942;9.256;2023-06-24T13:01:24;28.80;99.90
435;DHT22;204;48.942;9.256;2023-06-24T13:03:50;28.80;99.90
435;DHT22;204;48.942;9.256;2023-06-24T13:06:15;29.00;99.90
435;DHT22;204;48.942;9.256;2023-06-24T13:08:41;28.90;99.90
435;DHT22;204;48.942;9.256;2023-06-24T13:11:06;29.10;99.90
435;DHT22;204;48.942;9.256;2023-06-24T13:13:32;29.30;99.90
435;DHT22;204;48.942;9.256;2023-06-24T13:15:58;29.40;99.90
435;DHT22;204;48.942;9.256;2023-06-24T13:18:23;29.40;99.90
435;DHT22;204;48.942;9.256;2023-06-24T13:20:49;29.30;99.90
435;DHT22;204;48.942;9.256;2023-06-24T13:23:14;29.40;99.90
435;DHT22;204;48.942;9.256;2023-06-24T13:25:40;29.40;99.90
435;DHT22;204;48.942;9.256;2023-06-24T13:28:05;29.50;99.90
435;DHT22;204;48.942;9.256;2023-06-24T13:30:31;29.60;99.90
435;DHT22;204;48.942;9.256;2023-06-24T13:32:57;29.60;99.90
435;DHT22;204;48.942;9.256;2023-06-24T13:35:22;29.60;99.90
435;DHT22;204;48.942;9.256;2023-06-24T13:37:48;29.10;99.90
435;DHT22;204;48.942;9.256;2023-06-24T13:40:13;29.00;99.90
435;DHT22;204;48.942;9.256;2023-06-24T13:42:39;28.70;99.90
435;DHT22;204;48.942;9.256;2023-06-24T13:45:05;28.60;99.90
435;DHT22;204;48.942;9.256;2023-06-24T13:47:31;28.60;99.90
435;DHT22;204;48.942;9.256;2023-06-24T13:49:56;28.60;99.90
435;DHT22;204;48.942;9.256;2023-06-24T13:52:22;28.70;99.90
435;DHT22;204;48.942;9.256;2023-06-24T13:54:48;28.90;99.90
435;DHT22;204;48.942;9.256;2023-06-24T13:57:14;29.10;99.90
435;DHT22;204;48.942;9.256;2023-06-24T13:59:41;29.10;99.90
435;DHT22;204;48.942;9.256;2023-06-24T14:02:07;29.10;99.90
435;DHT22;204;48.942;9.256;2023-06-24T14:04:34;28.90;99.90
435;DHT22;204;48.942;9.256;2023-06-24T14:07:00;28.70;99.90
435;DHT22;204;48.942;9.256;2023-06-24T14:09:27;28.60;99.90
435;DHT22;204;48.942;9.256;2023-06-24T14:11:53;28.50;99.90
435;DHT22;204;48.942;9.256;2023-06-24T14:14:20;28.60;99.90
435;DHT22;204;48.942;9.256;2023-06-24T14:16:46;28.60;99.90
435;DHT22;204;48.942;9.256;2023-06-24T14:19:12;28.60;99.90
435;DHT22;204;48.942;9.256;2023-06-24T14:21:37;28.60;99.90
435;DHT22;204;48.942;9.256;2023-06-24T14:24:05;28.40;99.90
435;DHT22;204;48.942;9.256;2023-06-24T14:26:30;28.40;99.90
435;DHT22;204;48.942;9.256;2023-06-24T14:28:56;28.40;99.90
435;DHT22;204;48.942;9.256;2023-06-24T14:31:21;28.40;99.90
435;DHT22;204;48.942;9.256;2023-06-24T14:33:47;28.40;99.90
435;DHT22;204;48.942;9.256;2023-06-24T14:36:12;28.50;99.90
435;DHT22;204;48.942;9.256;2023-06-24T14:38:38;28.50;99.90
435;DHT22;204;48.942;9.256;2023-06-24T14:41:04;28.60;99.90
435;DHT22;204;48.942;9.256;2023-06-24T14:43:29;28.60;99.90
435;DHT22;204;48.942;9.256;2023-06-24T14:45:55;28.60;99.90
435;DHT22;204;48.942;9.256;2023-06-24T14:48:23;28.60;99.90
435;DHT22;204;48.942;9.256;2023-06-24T14:50:48;28.50;99.90
435;DHT22;204;48.942;9.256;2023-06-24T14:53:14;28.60;99.90
435;DHT22;204;48.942;9.256;2023-06-24T14:55:39;28.60;99.90
435;DHT22;204;48.942;9.256;2023-06-24T14:58:05;28.60;99.90
435;DHT22;204;48.942;9.256;2023-06-24T15:00:30;28.70;99.90
435;DHT22;204;48.942;9.256;2023-06-24T15:02:56;28.80;99.90
435;DHT22;204;48.942;9.256;2023-06-24T15:05:21;28.70;99.90
435;DHT22;204;48.942;9.256;2023-06-24T15:07:47;28.70;99.90
435;DHT22;204;48.942;9.256;2023-06-24T15:10:13;28.70;99.90
435;DHT22;204;48.942;9.256;2023-06-24T15:12:38;28.60;99.90
435;DHT22;204;48.942;9.256;2023-06-24T15:15:05;28.60;99.90
435;DHT22;204;48.942;9.256;2023-06-24T15:17:31;28.50;99.90
435;DHT22;204;48.942;9.256;2023-06-24T15:20:00;28.40;99.90
435;DHT22;204;48.942;9.256;2023-06-24T15:22:25;28.30;99.90
435;DHT22;204;48.942;9.256;2023-06-24T15:24:51;28.30;99.90
435;DHT22;204;48.942;9.256;2023-06-24T15:27:16;28.30;99.90
435;DHT22;204;48.942;9.256;2023-06-24T15:29:42;28.30;99.90
435;DHT22;204;48.942;9.256;2023-06-24T15:32:07;28.30;99.90
435;DHT22;204;48.942;9.256;2023-06-24T15:34:33;28.30;99.90
435;DHT22;204;48.942;9.256;2023-06-24T15:36:59;28.30;99.90
435;DHT22;204;48.942;9.256;2023-06-24T15:39:24;28.30;99.90
435;DHT22;204;48.942;9.256;2023-06-24T15:41:50;28.30;99.90
435;DHT22;204;48.942;9.256;2023-06-24T15:44:15;28.20;99.90
435;DHT22;204;48.942;9.256;2023-06-24T15:46:41;28.20;99.90
435;DHT22;204;48.942;9.256;2023-06-24T15:49:08;28.30;99.90
435;DHT22;204;48.942;9.256;2023-06-24T15:51:34;28.20;99.90
435;DHT22;204;48.942;9.256;2023-06-24T15:53:59;28.30;99.90
435;DHT22;204;48.942;9.256;2023-06-24T15:56:25;28.20;99.90
435;DHT22;204;48.942;9.256;2023-06-24T15:58:51;28.20;99.90
435;DHT22;204;48.942;9.256;2023-06-24T16:01:16;28.00;99.90
435;DHT22;204;48.942;9.256;2023-06-24T16:03:42;28.00;99.90
435;DHT22;204;48.942;9.256;2023-06-24T16:06:08;28.10;99.90
435;DHT22;204;48.942;9.256;2023-06-24T16:08:33;28.20;99.90
435;DHT22;204;48.942;9.256;2023-06-24T16:10:59;28.10;99.90
435;DHT22;204;48.942;9.256;2023-06-24T16:13:26;28.10;99.90
435;DHT22;204;48.942;9.256;2023-06-24T16:15:52;28.10;99.90
435;DHT22;204;48.942;9.256;2023-06-24T16:18:17;28.00;99.90
435;DHT22;204;48.942;9.256;2023-06-24T16:20:43;28.00;99.90
435;DHT22;204;48.942;9.256;2023-06-24T16:23:08;28.10;99.90
435;DHT22;204;48.942;9.256;2023-06-24T16:25:34;28.10;99.90
435;DHT22;204;48.942;9.256;2023-06-24T16:27:59;28.20;99.90
435;DHT22;204;48.942;9.256;2023-06-24T16:30:25;28.30;99.90
435;DHT22;204;48.942;9.256;2023-06-24T16:32:50;28.30;99.90
435;DHT22;204;48.942;9.256;2023-06-24T16:35:16;28.30;99.90
435;DHT22;204;48.942;9.256;2023-06-24T16:37:42;28.20;99.90
435;DHT22;204;48.942;9.256;2023-06-24T16:40:10;28.20;99.90
435;DHT22;204;48.942;9.256;2023-06-24T16:42:36;28.00;99.90
435;DHT22;204;48.942;9.256;2023-06-24T16:45:02;28.00;99.90
435;DHT22;204;48.942;9.256;2023-06-24T16:47:27;27.90;99.90
435;DHT22;204;48.942;9.256;2023-06-24T16:49:53;27.90;99.90
435;DHT22;204;48.942;9.256;2023-06-24T16:52:19;27.90;99.90
435;DHT22;204;48.942;9.256;2023-06-24T16:54:45;27.90;99.90
435;DHT22;204;48.942;9.256;2023-06-24T16:57:11;27.90;99.90
435;DHT22;204;48.942;9.256;2023-06-24T16:59:36;27.90;99.90